createdAt,value
2022-10-30T00:00:53.289Z,102456.53
2022-10-30T00:03:21.300Z,102459.28
2022-10-30T00:05:51.900Z,102460.38
2022-10-30T00:08:25.605Z,102464.94
2022-10-30T00:10:54.084Z,102463.31
2022-10-30T00:13:22.772Z,102473.94
2022-10-30T00:15:54.422Z,102471.50
2022-10-30T00:18:22.855Z,102483.88
2022-10-30T00:20:51.061Z,102488.34
2022-10-30T00:23:20.399Z,102495.47
2022-10-30T00:25:48.419Z,102509.66
2022-10-30T00:28:16.427Z,102516.75
2022-10-30T00:30:44.453Z,102530.78
2022-10-30T00:33:13.905Z,102530.97
2022-10-30T00:35:49.520Z,102538.91
2022-10-30T00:38:17.521Z,102544.16
2022-10-30T00:40:45.580Z,102557.38
2022-10-30T00:43:29.611Z,102554.88
2022-10-30T00:46:01.933Z,102561.00
2022-10-30T00:48:31.497Z,102580.31
2022-10-30T00:51:03.083Z,102584.75
2022-10-30T00:53:31.402Z,102590.84
2022-10-30T00:56:07.279Z,102590.06
2022-10-30T00:58:39.959Z,102596.19
2022-10-30T01:01:12.907Z,102598.00
2022-10-30T01:03:43.027Z,102593.63
2022-10-30T01:06:15.250Z,102591.91
2022-10-30T01:08:44.389Z,102595.41
2022-10-30T01:11:13.615Z,102595.22
2022-10-30T01:13:44.173Z,102592.50
2022-10-30T01:16:41.809Z,102581.09
2022-10-30T01:19:19.934Z,102562.78
2022-10-30T01:22:03.723Z,102560.22
2022-10-30T01:24:42.422Z,102549.84
2022-10-30T01:27:27.151Z,102549.06
2022-10-30T01:30:04.542Z,102540.38
2022-10-30T01:32:50.207Z,102537.88
2022-10-30T01:35:25.424Z,102545.81
2022-10-30T01:37:59.211Z,102548.47
2022-10-30T01:40:27.761Z,102546.81
2022-10-30T01:42:57.605Z,102548.66
2022-10-30T01:45:38.391Z,102549.63
2022-10-30T01:48:24.839Z,102549.69
2022-10-30T01:51:01.478Z,102558.44
2022-10-30T01:53:44.337Z,102563.63
2022-10-30T01:56:21.188Z,102556.63
2022-10-30T01:58:57.325Z,102560.03
2022-10-30T02:01:27.582Z,102558.28
2022-10-30T02:03:56.052Z,102555.63
2022-10-30T02:06:25.779Z,102560.78
2022-10-30T02:08:56.740Z,102554.53
2022-10-30T02:11:26.853Z,102550.97
2022-10-30T02:13:57.216Z,102550.88
2022-10-30T02:16:25.592Z,102531.59
2022-10-30T02:18:53.526Z,102518.44
2022-10-30T02:21:23.228Z,102503.59
2022-10-30T02:23:51.275Z,102497.47
2022-10-30T02:26:19.234Z,102493.16
2022-10-30T02:28:47.644Z,102488.03
2022-10-30T02:31:15.755Z,102493.28
2022-10-30T02:33:46.841Z,102491.53
2022-10-30T02:36:16.480Z,102502.00
2022-10-30T02:38:46.030Z,102509.88
2022-10-30T02:41:14.182Z,102503.78
2022-10-30T02:43:42.117Z,102514.34
2022-10-30T02:46:10.272Z,102511.75
2022-10-30T02:48:38.261Z,102510.00
2022-10-30T02:51:06.726Z,102510.78
2022-10-30T02:53:35.922Z,102505.50
2022-10-30T02:56:10.960Z,102492.38
2022-10-30T02:58:38.986Z,102485.50
2022-10-30T03:01:08.383Z,102474.94
2022-10-30T03:03:38.598Z,102471.41
2022-10-30T03:06:08.344Z,102455.72
2022-10-30T03:08:37.155Z,102455.72
2022-10-30T03:11:07.307Z,102452.25
2022-10-30T03:13:40.856Z,102438.28
2022-10-30T03:16:11.116Z,102440.91
2022-10-30T03:18:39.373Z,102439.06
2022-10-30T03:21:09.206Z,102435.47
2022-10-30T03:23:37.687Z,102433.53
2022-10-30T03:26:06.168Z,102408.97
2022-10-30T03:28:36.289Z,102391.56
2022-10-30T03:31:06.404Z,102378.47
2022-10-30T03:33:35.642Z,102370.59
2022-10-30T03:36:03.893Z,102372.31
2022-10-30T03:38:32.345Z,102362.56
2022-10-30T03:41:01.150Z,102356.41
2022-10-30T03:43:29.339Z,102346.72
2022-10-30T03:45:59.139Z,102328.19
2022-10-30T03:48:29.504Z,102322.91
2022-10-30T03:50:58.967Z,102306.19
2022-10-30T03:53:28.640Z,102310.53
2022-10-30T03:56:00.365Z,102291.34
2022-10-30T03:58:29.235Z,102284.28
2022-10-30T04:01:02.612Z,102285.97
2022-10-30T04:03:30.934Z,102282.34
2022-10-30T04:05:59.036Z,102275.25
2022-10-30T04:08:27.047Z,102270.00
2022-10-30T04:10:55.095Z,102242.03
2022-10-30T04:13:23.192Z,102231.53
2022-10-30T04:15:56.093Z,102228.09
2022-10-30T04:18:27.680Z,102211.50
2022-10-30T04:20:56.506Z,102186.28
2022-10-30T04:23:24.532Z,102191.66
2022-10-30T04:25:52.561Z,102201.25
2022-10-30T04:28:21.381Z,102207.47
2022-10-30T04:30:50.024Z,102212.72
2022-10-30T04:33:18.430Z,102205.84
2022-10-30T04:35:47.966Z,102225.84
2022-10-30T04:38:19.131Z,102226.69
2022-10-30T04:40:47.430Z,102220.50
2022-10-30T04:43:16.061Z,102210.09
2022-10-30T04:45:44.319Z,102210.09
2022-10-30T04:48:14.546Z,102207.41
2022-10-30T04:50:43.452Z,102196.03
2022-10-30T04:53:15.246Z,102189.97
2022-10-30T04:55:44.248Z,102176.91
2022-10-30T04:58:13.109Z,102174.28
2022-10-30T05:00:41.730Z,102172.59
2022-10-30T05:03:16.952Z,102171.72
2022-10-30T05:05:45.130Z,102169.09
2022-10-30T05:08:14.450Z,102173.41
2022-10-30T05:10:42.436Z,102174.22
2022-10-30T05:13:12.533Z,102167.13
2022-10-30T05:15:40.933Z,102165.16
2022-10-30T05:18:08.984Z,102149.28
2022-10-30T05:20:37.183Z,102142.16
2022-10-30T05:23:05.220Z,102141.06
2022-10-30T05:25:34.754Z,102125.19
2022-10-30T05:28:04.371Z,102118.19
2022-10-30T05:30:34.471Z,102099.88
2022-10-30T05:33:03.999Z,102093.78
2022-10-30T05:35:33.864Z,102078.03
2022-10-30T05:38:02.384Z,102068.38
2022-10-30T05:40:30.859Z,102054.44
2022-10-30T05:43:00.933Z,102054.44
2022-10-30T05:45:29.277Z,102042.94
2022-10-30T05:47:58.642Z,102041.09
2022-10-30T05:50:28.020Z,102027.97
2022-10-30T05:52:57.572Z,102042.81
2022-10-30T05:55:26.161Z,102029.72
2022-10-30T05:57:58.537Z,102026.34
2022-10-30T06:00:29.770Z,102019.38
2022-10-30T06:03:02.122Z,102014.22
2022-10-30T06:05:32.473Z,102005.47
2022-10-30T06:08:00.800Z,101999.38
2022-10-30T06:10:29.220Z,101994.22
2022-10-30T06:12:58.511Z,101983.72
2022-10-30T06:15:28.832Z,101974.13
2022-10-30T06:17:57.651Z,101972.38
2022-10-30T06:20:27.972Z,101967.03
2022-10-30T06:22:56.747Z,101956.53
2022-10-30T06:25:25.321Z,101937.41
2022-10-30T06:27:53.844Z,101936.47
2022-10-30T06:30:25.124Z,101937.41
2022-10-30T06:33:03.022Z,101921.66
2022-10-30T06:35:32.522Z,101919.94
2022-10-30T06:38:02.624Z,101918.25
2022-10-30T06:40:31.156Z,101915.53
2022-10-30T06:42:59.747Z,101918.13
2022-10-30T06:45:29.088Z,101908.47
2022-10-30T06:47:59.310Z,101905.84
2022-10-30T06:50:27.915Z,101905.00
2022-10-30T06:52:57.071Z,101907.63
2022-10-30T06:55:25.175Z,101909.31
2022-10-30T06:57:57.385Z,101930.28
2022-10-30T07:00:26.546Z,101926.75
2022-10-30T07:03:01.205Z,101928.38
2022-10-30T07:05:30.555Z,101931.84
2022-10-30T07:08:01.121Z,101923.84
2022-10-30T07:10:33.994Z,101931.63
2022-10-30T07:13:02.675Z,101916.66
2022-10-30T07:15:31.481Z,101913.13
2022-10-30T07:18:03.168Z,101916.66
2022-10-30T07:20:37.641Z,101930.72
2022-10-30T07:23:08.549Z,101938.66
2022-10-30T07:25:37.204Z,101942.22
2022-10-30T07:28:05.902Z,101959.00
2022-10-30T07:30:34.658Z,101958.25
2022-10-30T07:33:09.199Z,101967.13
2022-10-30T07:35:41.592Z,101978.53
2022-10-30T07:38:17.800Z,101979.38
2022-10-30T07:40:49.867Z,101992.44
2022-10-30T07:43:19.927Z,101999.47
2022-10-30T07:45:50.189Z,102005.47
2022-10-30T07:48:22.480Z,102019.31
2022-10-30T07:50:53.494Z,102015.69
2022-10-30T07:53:24.913Z,102012.00
2022-10-30T07:55:55.203Z,102010.00
2022-10-30T07:58:25.853Z,102016.59
2022-10-30T08:00:57.824Z,102032.84
2022-10-30T08:03:29.891Z,102040.38
2022-10-30T08:05:59.350Z,102018.41
2022-10-30T08:08:28.258Z,102017.78
2022-10-30T08:10:59.076Z,102014.41
2022-10-30T08:13:28.558Z,102004.91
2022-10-30T08:15:56.674Z,102002.56
2022-10-30T08:18:32.016Z,102009.84
2022-10-30T08:20:59.969Z,102029.44
2022-10-30T08:23:28.121Z,102025.47
2022-10-30T08:26:00.480Z,102058.19
2022-10-30T08:28:31.841Z,102069.81
2022-10-30T08:31:02.445Z,102083.06
2022-10-30T08:33:31.856Z,102084.94
2022-10-30T08:36:01.580Z,102094.59
2022-10-30T08:38:30.518Z,102116.53
2022-10-30T08:40:58.551Z,102125.22
2022-10-30T08:43:26.835Z,102141.81
2022-10-30T08:45:54.920Z,102159.41
2022-10-30T08:48:22.871Z,102176.91
2022-10-30T08:50:52.421Z,102184.66
2022-10-30T08:53:20.635Z,102194.09
2022-10-30T08:55:48.578Z,102218.38
2022-10-30T08:58:16.559Z,102231.28
2022-10-30T09:00:44.546Z,102222.50
2022-10-30T09:03:12.578Z,102224.31
2022-10-30T09:05:40.584Z,102225.47
2022-10-30T09:08:09.955Z,102221.31
2022-10-30T09:10:37.945Z,102221.56
2022-10-30T09:13:06.004Z,102222.94
2022-10-30T09:15:34.329Z,102222.50
2022-10-30T09:18:03.863Z,102225.22
2022-10-30T09:20:32.716Z,102241.28
2022-10-30T09:23:01.066Z,102241.47
2022-10-30T09:25:31.033Z,102271.22
2022-10-30T09:27:58.956Z,102270.44
2022-10-30T09:30:27.597Z,102265.25
2022-10-30T09:32:56.973Z,102287.06
2022-10-30T09:35:25.774Z,102294.06
2022-10-30T09:37:53.711Z,102294.94
2022-10-30T09:40:29.880Z,102286.28
2022-10-30T09:43:07.201Z,102294.19
2022-10-30T09:45:57.352Z,102297.75
2022-10-30T09:49:17.349Z,102311.81
2022-10-30T09:52:05.997Z,102308.53
2022-10-30T09:54:48.733Z,102325.22
2022-10-30T09:57:24.968Z,102358.75
2022-10-30T10:00:03.792Z,102284.69
2022-10-30T10:02:38.274Z,102226.25
2022-10-30T10:05:16.973Z,102215.44
2022-10-30T10:07:49.345Z,102203.56
2022-10-30T10:10:23.500Z,102205.56
2022-10-30T10:13:00.078Z,102212.66
2022-10-30T10:15:38.438Z,102234.41
2022-10-30T10:18:15.158Z,102223.94
2022-10-30T10:20:48.512Z,102230.97
2022-10-30T10:23:20.150Z,102223.13
2022-10-30T10:25:54.208Z,102212.66
2022-10-30T10:28:42.005Z,102209.13
2022-10-30T10:31:19.784Z,102202.94
2022-10-30T10:34:00.380Z,102201.16
2022-10-30T10:36:41.046Z,102198.53
2022-10-30T10:39:29.336Z,102181.94
2022-10-30T10:42:13.572Z,102167.03
2022-10-30T10:44:55.237Z,102160.91
2022-10-30T10:47:51.765Z,102182.63
2022-10-30T10:50:26.290Z,102160.72
2022-10-30T10:53:01.491Z,102164.00
2022-10-30T10:55:36.321Z,102155.00
2022-10-30T10:58:11.409Z,102152.09
2022-10-30T11:00:41.161Z,102178.91
2022-10-30T11:05:49.306Z,102164.84
2022-10-30T11:08:22.483Z,102161.34
2022-10-30T11:10:57.646Z,102161.25
2022-10-30T11:13:28.580Z,102171.50
2022-10-30T11:16:05.839Z,102165.09
2022-10-30T11:18:34.956Z,102158.84
2022-10-30T11:21:08.417Z,102153.59
2022-10-30T11:23:40.782Z,102151.75
2022-10-30T11:26:29.863Z,102148.81
2022-10-30T11:29:03.221Z,102136.16
2022-10-30T11:31:35.430Z,102141.75
2022-10-30T11:34:16.778Z,102138.50
2022-10-30T11:36:45.167Z,102141.31
2022-10-30T11:39:19.976Z,102140.94
2022-10-30T11:41:55.713Z,102110.47
2022-10-30T11:44:25.156Z,102099.03
2022-10-30T11:46:53.480Z,102085.91
2022-10-30T11:49:34.833Z,102075.59
2022-10-30T11:52:03.814Z,102064.03
2022-10-30T11:54:39.014Z,102045.31
2022-10-30T11:57:23.794Z,102043.06
2022-10-30T11:59:58.223Z,102012.59
2022-10-30T12:02:31.189Z,101994.84
2022-10-30T12:05:04.047Z,101977.38
2022-10-30T12:07:33.895Z,101963.56
2022-10-30T12:10:04.512Z,101954.56
2022-10-30T12:12:37.330Z,101943.63
2022-10-30T12:15:20.378Z,101953.69
2022-10-30T12:17:53.889Z,101949.69
2022-10-30T12:20:22.325Z,101948.31
2022-10-30T12:22:50.825Z,101950.84
2022-10-30T12:25:24.607Z,101943.94
2022-10-30T12:28:00.594Z,101927.84
2022-10-30T12:30:32.284Z,101914.47
2022-10-30T12:33:06.129Z,101896.06
2022-10-30T12:35:47.872Z,101884.88
2022-10-30T12:38:22.172Z,101868.41
2022-10-30T12:41:01.301Z,101890.16
2022-10-30T12:43:29.548Z,101890.50
2022-10-30T12:46:07.671Z,101885.34
2022-10-30T12:48:42.984Z,101897.50
2022-10-30T12:51:21.373Z,101889.88
2022-10-30T12:54:00.536Z,101871.81
2022-10-30T12:56:35.051Z,101871.59
2022-10-30T12:59:20.668Z,101849.56
2022-10-30T13:01:53.678Z,101847.88
2022-10-30T13:04:25.832Z,101834.03
2022-10-30T13:06:59.428Z,101833.19
2022-10-30T13:09:32.094Z,101837.53
2022-10-30T13:12:05.888Z,101844.63
2022-10-30T13:14:39.871Z,101852.34
2022-10-30T13:17:12.359Z,101849.72
2022-10-30T13:19:42.048Z,101829.88
2022-10-30T13:22:17.030Z,101822.34
2022-10-30T13:24:57.931Z,101830.25
2022-10-30T13:27:41.136Z,101832.84
2022-10-30T13:30:15.182Z,101828.31
2022-10-30T13:33:00.296Z,101819.34
2022-10-30T13:35:37.390Z,101813.44
2022-10-30T13:38:19.484Z,101807.47
2022-10-30T13:40:53.510Z,101788.59
2022-10-30T13:43:31.348Z,101768.13
2022-10-30T13:46:14.845Z,101775.84
2022-10-30T13:48:57.003Z,101783.94
2022-10-30T13:51:36.382Z,101770.19
2022-10-30T13:54:14.482Z,101777.84
2022-10-30T13:56:44.376Z,101775.44
2022-10-30T13:59:26.110Z,101776.69
2022-10-30T14:02:05.673Z,101783.97
2022-10-30T14:04:41.251Z,101794.19
2022-10-30T14:07:27.736Z,101804.19
2022-10-30T14:10:03.850Z,101804.13
2022-10-30T14:12:46.490Z,101804.75
2022-10-30T14:15:28.262Z,101806.94
2022-10-30T14:18:25.549Z,101818.84
2022-10-30T14:20:54.591Z,101819.28
2022-10-30T14:23:24.307Z,101818.69
2022-10-30T14:26:15.126Z,101824.66
2022-10-30T14:28:45.145Z,101840.75
2022-10-30T14:31:17.444Z,101847.38
2022-10-30T14:33:49.331Z,101862.00
2022-10-30T14:36:20.406Z,101866.13
2022-10-30T14:39:01.602Z,101878.63
2022-10-30T14:42:00.380Z,101895.31
2022-10-30T14:45:08.298Z,101909.56
2022-10-30T14:47:57.700Z,101922.84
2022-10-30T14:51:01.196Z,101931.81
2022-10-30T14:53:42.031Z,101943.31
2022-10-30T14:56:25.107Z,102035.94
2022-10-30T14:59:20.381Z,102031.84
2022-10-30T15:01:56.077Z,102014.09
2022-10-30T15:04:35.664Z,102021.31
2022-10-30T15:07:12.422Z,102033.25
2022-10-30T15:09:50.041Z,102048.69
2022-10-30T15:15:02.561Z,102125.22
2022-10-30T15:17:34.221Z,102165.53
2022-10-30T15:20:08.739Z,102213.34
2022-10-30T15:22:37.093Z,102241.47
2022-10-30T15:25:06.752Z,102248.41
2022-10-30T15:27:35.733Z,102266.97
2022-10-30T15:30:05.464Z,102263.31
2022-10-30T15:32:33.432Z,102240.16
2022-10-30T15:35:05.247Z,102229.22
2022-10-30T15:37:33.635Z,102218.03
2022-10-30T15:40:18.130Z,102218.44
2022-10-30T15:42:47.509Z,102216.84
2022-10-30T15:45:20.905Z,102219.97
2022-10-30T15:47:59.787Z,102220.31
2022-10-30T15:50:29.801Z,102231.00
2022-10-30T15:52:58.187Z,102235.84
2022-10-30T15:55:30.472Z,102231.44
2022-10-30T15:58:03.991Z,102227.03
2022-10-30T16:00:35.733Z,102224.22
2022-10-30T16:03:06.081Z,102228.38
2022-10-30T16:05:36.642Z,102224.91
2022-10-30T16:08:11.223Z,102219.00
2022-10-30T16:10:40.740Z,102221.13
2022-10-30T16:13:15.562Z,102229.34
2022-10-30T16:15:47.378Z,102235.72
2022-10-30T16:18:20.097Z,102234.22
2022-10-30T16:20:53.424Z,102230.88
2022-10-30T16:23:22.406Z,102245.06
2022-10-30T16:25:55.430Z,102248.81
2022-10-30T16:28:30.817Z,102257.81
2022-10-30T16:31:01.158Z,102254.56
2022-10-30T16:33:31.366Z,102257.41
2022-10-30T16:36:03.401Z,102266.47
2022-10-30T16:38:35.226Z,102263.16
2022-10-30T16:41:06.106Z,102267.75
2022-10-30T16:43:35.432Z,102273.25
2022-10-30T16:46:36.062Z,102270.88
2022-10-30T16:49:08.437Z,102277.22
2022-10-30T16:51:39.991Z,102274.81
2022-10-30T16:54:08.672Z,102281.94
2022-10-30T16:56:36.666Z,102278.66
2022-10-30T16:59:14.235Z,102276.22
2022-10-30T17:01:42.631Z,102274.69
2022-10-30T17:04:16.431Z,102274.91
2022-10-30T17:06:46.464Z,102294.34
2022-10-30T17:09:23.351Z,102291.88
2022-10-30T17:12:05.834Z,102295.59
2022-10-30T17:14:43.003Z,102303.56
2022-10-30T17:17:31.591Z,102301.97
2022-10-30T17:20:02.140Z,102305.63
2022-10-30T17:22:32.128Z,102309.22
2022-10-30T17:25:01.175Z,102305.88
2022-10-30T17:27:47.031Z,102309.47
2022-10-30T17:30:36.163Z,102303.47
2022-10-30T17:33:21.580Z,102320.16
2022-10-30T17:35:49.879Z,102318.44
2022-10-30T17:38:19.343Z,102321.13
2022-10-30T17:40:47.664Z,102330.75
2022-10-30T17:43:16.145Z,102333.41
2022-10-30T17:45:44.810Z,102343.06
2022-10-30T17:48:14.872Z,102337.94
2022-10-30T17:50:44.071Z,102350.19
2022-10-30T17:53:18.452Z,102347.66
2022-10-30T17:55:51.806Z,102351.25
2022-10-30T17:58:22.490Z,102349.59
2022-10-30T18:00:50.781Z,102353.09
2022-10-30T18:03:19.234Z,102354.03
2022-10-30T18:05:48.249Z,102365.41
2022-10-30T18:08:16.449Z,102363.69
2022-10-30T18:10:44.631Z,102365.50
2022-10-30T18:13:15.147Z,102362.97
2022-10-30T18:15:45.238Z,102365.63
2022-10-30T18:18:13.610Z,102363.97
2022-10-30T18:20:41.583Z,102367.53
2022-10-30T18:23:46.766Z,102364.13
2022-10-30T18:26:08.617Z,102372.03
2022-10-30T18:28:38.115Z,102380.84
2022-10-30T18:31:06.428Z,102380.91
2022-10-30T18:33:34.740Z,102386.16
2022-10-30T18:36:03.025Z,102381.88
2022-10-30T18:38:31.268Z,102388.94
2022-10-30T18:40:59.577Z,102388.88
2022-10-30T18:43:27.634Z,102388.00
2022-10-30T18:45:57.264Z,102387.22
2022-10-30T18:48:25.286Z,102384.63
2022-10-30T18:50:53.252Z,102388.09
2022-10-30T18:53:21.387Z,102393.41
2022-10-30T18:55:49.655Z,102405.63
2022-10-30T18:58:17.889Z,102401.28
2022-10-30T19:01:10.570Z,102399.59
2022-10-30T19:03:35.728Z,102406.66
2022-10-30T19:06:03.688Z,102411.03
2022-10-30T19:08:31.718Z,102411.06
2022-10-30T19:10:59.794Z,102416.31
2022-10-30T19:13:27.825Z,102417.13
2022-10-30T19:16:00.481Z,102419.75
2022-10-30T19:18:31.243Z,102412.78
2022-10-30T19:21:05.812Z,102417.22
2022-10-30T19:23:36.083Z,102415.50
2022-10-30T19:26:04.222Z,102414.69
2022-10-30T19:28:32.860Z,102420.81
2022-10-30T19:31:01.171Z,102426.03
2022-10-30T19:33:29.138Z,102421.75
2022-10-30T19:35:58.789Z,102434.91
2022-10-30T19:38:28.628Z,102429.69
2022-10-30T19:40:56.861Z,102435.75
2022-10-30T19:43:24.949Z,102434.91
2022-10-30T19:45:56.875Z,102441.03
2022-10-30T19:48:55.500Z,102441.94
2022-10-30T19:51:13.350Z,102441.09
2022-10-30T19:53:43.450Z,102437.66
2022-10-30T19:56:12.248Z,102435.09
2022-10-30T19:58:40.227Z,102435.13
2022-10-30T20:01:08.237Z,102444.81
2022-10-30T20:03:36.279Z,102450.09
2022-10-30T20:06:04.296Z,102443.22
2022-10-30T20:08:32.303Z,102447.59
2022-10-30T20:11:02.115Z,102449.41
2022-10-30T20:13:33.195Z,102441.66
2022-10-30T20:16:05.067Z,102443.41
2022-10-30T20:18:35.365Z,102442.53
2022-10-30T20:21:06.004Z,102446.03
2022-10-30T20:23:34.099Z,102444.38
2022-10-30T20:26:05.792Z,102441.75
2022-10-30T20:28:37.188Z,102445.34
2022-10-30T20:31:05.743Z,102452.31
2022-10-30T20:33:35.638Z,102441.84
2022-10-30T20:36:03.815Z,102446.25
2022-10-30T20:38:33.858Z,102447.16
2022-10-30T20:41:04.766Z,102439.31
2022-10-30T20:43:35.149Z,102442.81
2022-10-30T20:46:04.347Z,102440.19
2022-10-30T20:48:32.406Z,102441.13
2022-10-30T20:51:02.308Z,102441.16
2022-10-30T20:53:30.478Z,102437.66
2022-10-30T20:55:58.545Z,102434.25
2022-10-30T20:58:28.051Z,102438.69
2022-10-30T21:00:58.170Z,102439.66
2022-10-30T21:03:26.783Z,102444.09
2022-10-30T21:05:56.850Z,102449.41
2022-10-30T21:08:25.215Z,102443.38
2022-10-30T21:10:53.221Z,102449.47
2022-10-30T21:13:21.239Z,102451.28
2022-10-30T21:15:51.509Z,102450.44
2022-10-30T21:18:19.513Z,102450.44
2022-10-30T21:20:48.255Z,102453.94
2022-10-30T21:23:16.214Z,102446.19
2022-10-30T21:25:44.200Z,102442.69
2022-10-30T21:28:12.192Z,102446.25
2022-10-30T21:30:40.175Z,102443.66
2022-10-30T21:33:09.562Z,102447.09
2022-10-30T21:35:37.554Z,102441.03
2022-10-30T21:38:05.669Z,102445.38
2022-10-30T21:40:33.679Z,102446.31
2022-10-30T21:43:04.310Z,102449.84
2022-10-30T21:45:32.820Z,102445.47
2022-10-30T21:48:00.828Z,102448.88
2022-10-30T21:50:30.263Z,102444.53
2022-10-30T21:52:58.571Z,102448.84
2022-10-30T21:55:26.800Z,102441.00
2022-10-30T21:57:55.345Z,102438.41
2022-10-30T22:00:24.606Z,102439.34
2022-10-30T22:02:54.448Z,102435.00
2022-10-30T22:05:22.655Z,102432.44
2022-10-30T22:07:52.508Z,102433.34
2022-10-30T22:10:20.510Z,102431.69
2022-10-30T22:12:48.468Z,102434.28
2022-10-30T22:15:16.555Z,102424.72
2022-10-30T22:17:44.519Z,102430.88
2022-10-30T22:20:13.248Z,102429.16
2022-10-30T22:22:41.203Z,102435.28
2022-10-30T22:25:10.719Z,102430.03
2022-10-30T22:27:38.730Z,102428.28
2022-10-30T22:30:07.949Z,102438.72
2022-10-30T22:32:35.874Z,102435.19
2022-10-30T22:35:03.846Z,102437.00
2022-10-30T22:37:31.916Z,102428.28
2022-10-30T22:39:59.881Z,102424.81
2022-10-30T22:42:29.228Z,102423.13
2022-10-30T22:44:57.189Z,102430.09
2022-10-30T22:47:25.205Z,102430.16
2022-10-30T22:49:53.194Z,102422.31
2022-10-30T22:52:21.178Z,102419.69
2022-10-30T22:54:49.157Z,102421.41
2022-10-30T22:57:17.194Z,102419.59
2022-10-30T22:59:46.547Z,102422.16
2022-10-30T23:02:14.533Z,102419.50
2022-10-30T23:04:42.530Z,102415.91
2022-10-30T23:07:10.487Z,102425.31
2022-10-30T23:09:38.453Z,102420.94
2022-10-30T23:12:07.283Z,102414.78
2022-10-30T23:14:35.381Z,102411.22
2022-10-30T23:17:04.755Z,102417.22
2022-10-30T23:19:32.719Z,102418.03
2022-10-30T23:22:00.929Z,102415.34
2022-10-30T23:24:28.930Z,102418.81
2022-10-30T23:26:56.935Z,102422.28
2022-10-30T23:29:24.913Z,102426.56
2022-10-30T23:31:52.907Z,102430.84
2022-10-30T23:34:22.253Z,102421.16
2022-10-30T23:36:50.250Z,102427.94
2022-10-30T23:39:19.149Z,102427.72
2022-10-30T23:41:47.296Z,102428.47
2022-10-30T23:44:16.580Z,102426.59
2022-10-30T23:46:44.687Z,102423.00
2022-10-30T23:49:12.709Z,102422.91
2022-10-30T23:51:42.101Z,102427.19
2022-10-30T23:54:10.287Z,102430.72
2022-10-30T23:56:38.261Z,102420.28
2022-10-30T23:59:06.297Z,102424.63
